createdAt,value
2022-11-06T00:00:27.580Z,4.90
2022-11-06T00:02:57.977Z,3.90
2022-11-06T00:05:43.120Z,3.63
2022-11-06T00:08:09.637Z,4.10
2022-11-06T00:10:36.351Z,4.70
2022-11-06T00:13:03.051Z,3.87
2022-11-06T00:15:30.127Z,3.83
2022-11-06T00:17:56.743Z,3.70
2022-11-06T00:20:23.688Z,3.93
2022-11-06T00:22:50.241Z,3.50
2022-11-06T00:25:16.765Z,3.83
2022-11-06T00:27:43.805Z,3.40
2022-11-06T00:30:11.549Z,3.30
2022-11-06T00:32:38.645Z,3.67
2022-11-06T00:35:05.424Z,3.87
2022-11-06T00:37:31.756Z,3.50
2022-11-06T00:39:59.483Z,3.50
2022-11-06T00:42:25.853Z,3.57
2022-11-06T00:44:52.234Z,3.33
2022-11-06T00:47:18.719Z,2.70
2022-11-06T00:49:45.118Z,3.90
2022-11-06T00:52:11.630Z,2.90
2022-11-06T00:54:38.028Z,3.77
2022-11-06T00:57:04.353Z,3.63
2022-11-06T00:59:30.697Z,3.00
2022-11-06T01:01:57.093Z,3.30
2022-11-06T01:04:24.252Z,3.43
2022-11-06T01:06:53.842Z,3.07
2022-11-06T01:09:23.462Z,3.20
2022-11-06T01:12:13.377Z,3.23
2022-11-06T01:14:41.843Z,3.37
2022-11-06T01:17:08.393Z,2.73
2022-11-06T01:19:34.736Z,2.90
2022-11-06T01:22:01.225Z,3.30
2022-11-06T01:24:29.246Z,2.90
2022-11-06T01:27:24.787Z,2.77
2022-11-06T01:29:42.760Z,3.10
2022-11-06T01:32:09.786Z,2.87
2022-11-06T01:34:36.283Z,3.03
2022-11-06T01:37:02.720Z,3.10
2022-11-06T01:39:29.220Z,3.20
2022-11-06T01:41:55.575Z,2.67
2022-11-06T01:44:40.824Z,2.80
2022-11-06T01:47:24.871Z,3.17
2022-11-06T01:49:55.173Z,2.83
2022-11-06T01:52:22.939Z,2.70
2022-11-06T01:54:53.059Z,2.67
2022-11-06T01:57:20.055Z,3.27
2022-11-06T01:59:46.671Z,3.30
2022-11-06T02:02:16.348Z,3.10
2022-11-06T02:04:45.766Z,2.93
2022-11-06T02:07:12.172Z,2.97
2022-11-06T02:09:39.469Z,2.33
2022-11-06T02:12:18.063Z,3.13
2022-11-06T02:14:56.872Z,2.90
2022-11-06T02:17:42.132Z,2.70
2022-11-06T02:20:30.850Z,2.90
2022-11-06T02:23:44.882Z,2.87
2022-11-06T02:26:44.400Z,2.40
2022-11-06T02:29:17.893Z,3.03
2022-11-06T02:31:46.296Z,2.50
2022-11-06T02:34:16.720Z,2.80
2022-11-06T02:36:55.039Z,3.10
2022-11-06T02:39:24.325Z,2.67
2022-11-06T02:41:53.272Z,3.30
2022-11-06T02:44:24.484Z,2.40
2022-11-06T02:46:54.203Z,2.90
2022-11-06T02:49:36.983Z,2.70
2022-11-06T02:52:22.221Z,3.03
2022-11-06T02:55:01.298Z,2.30
2022-11-06T02:57:31.998Z,3.07
2022-11-06T03:00:03.972Z,3.00
2022-11-06T03:02:37.195Z,2.57
2022-11-06T03:05:17.414Z,3.37
2022-11-06T03:08:06.750Z,3.13
2022-11-06T03:10:42.533Z,2.10
2022-11-06T03:13:22.751Z,2.60
2022-11-06T03:16:05.297Z,2.53
2022-11-06T03:19:02.695Z,2.40
2022-11-06T03:21:42.527Z,2.40
2022-11-06T03:24:21.548Z,2.60
2022-11-06T03:26:52.856Z,3.07
2022-11-06T03:29:47.527Z,2.50
2022-11-06T03:32:19.875Z,2.37
2022-11-06T03:35:12.691Z,2.60
2022-11-06T03:37:47.026Z,2.17
2022-11-06T03:40:17.938Z,2.27
2022-11-06T03:42:46.434Z,2.43
2022-11-06T03:45:21.669Z,2.57
2022-11-06T03:48:02.936Z,2.50
2022-11-06T03:50:47.660Z,2.43
2022-11-06T03:53:20.924Z,2.67
2022-11-06T03:55:53.669Z,2.13
2022-11-06T03:58:27.764Z,2.40
2022-11-06T04:00:57.218Z,2.50
2022-11-06T04:03:27.119Z,2.20
2022-11-06T04:06:06.496Z,2.17
2022-11-06T04:08:52.605Z,2.20
2022-11-06T04:11:41.452Z,2.07
2022-11-06T04:14:09.077Z,2.57
2022-11-06T04:16:39.820Z,2.10
2022-11-06T04:19:14.044Z,2.13
2022-11-06T04:22:06.621Z,2.10
2022-11-06T04:25:22.317Z,2.27
2022-11-06T04:28:00.625Z,2.50
2022-11-06T04:30:33.126Z,2.20
2022-11-06T04:33:20.823Z,2.20
2022-11-06T04:35:56.268Z,2.30
2022-11-06T04:38:57.342Z,2.60
2022-11-06T04:41:41.805Z,2.33
2022-11-06T04:44:31.345Z,2.27
2022-11-06T04:47:02.019Z,2.10
2022-11-06T04:49:33.102Z,2.00
2022-11-06T04:52:04.307Z,2.23
2022-11-06T04:54:32.124Z,2.33
2022-11-06T04:57:03.059Z,2.20
2022-11-06T04:59:32.710Z,2.37
2022-11-06T05:01:59.060Z,2.37
2022-11-06T05:04:25.541Z,2.20
2022-11-06T05:06:51.860Z,2.20
2022-11-06T05:09:18.428Z,2.10
2022-11-06T05:11:44.849Z,1.80
2022-11-06T05:14:11.333Z,2.53
2022-11-06T05:16:37.770Z,1.93
2022-11-06T05:19:04.372Z,2.03
2022-11-06T05:21:49.498Z,1.87
2022-11-06T05:24:15.930Z,1.57
2022-11-06T05:26:42.399Z,1.50
2022-11-06T05:29:09.048Z,2.50
2022-11-06T05:31:35.411Z,2.13
2022-11-06T05:34:01.733Z,2.30
2022-11-06T05:36:28.269Z,1.50
2022-11-06T05:38:54.693Z,1.80
2022-11-06T05:41:21.055Z,1.67
2022-11-06T05:43:47.493Z,1.67
2022-11-06T05:46:35.632Z,2.40
2022-11-06T05:49:00.544Z,1.60
2022-11-06T05:51:26.976Z,1.60
2022-11-06T05:53:54.987Z,1.67
2022-11-06T05:56:21.305Z,1.50
2022-11-06T05:58:47.673Z,2.17
2022-11-06T06:01:14.245Z,2.20
2022-11-06T06:03:40.665Z,2.00
2022-11-06T06:06:07.145Z,1.83
2022-11-06T06:08:33.562Z,1.90
2022-11-06T06:10:59.871Z,2.00
2022-11-06T06:13:26.295Z,1.87
2022-11-06T06:15:52.873Z,1.73
2022-11-06T06:18:19.229Z,1.70
2022-11-06T06:20:45.533Z,1.77
2022-11-06T06:23:12.079Z,1.60
2022-11-06T06:25:38.553Z,1.90
2022-11-06T06:28:04.975Z,2.10
2022-11-06T06:30:32.057Z,2.23
2022-11-06T06:33:04.300Z,1.63
2022-11-06T06:35:30.653Z,1.73
2022-11-06T06:37:56.950Z,2.00
2022-11-06T06:40:23.572Z,2.10
2022-11-06T06:42:50.220Z,1.73
2022-11-06T06:45:17.158Z,2.00
2022-11-06T06:47:43.500Z,2.47
2022-11-06T06:50:10.075Z,2.03
2022-11-06T06:52:36.517Z,2.00
2022-11-06T06:55:03.035Z,2.33
2022-11-06T06:57:29.407Z,1.87
2022-11-06T06:59:55.858Z,2.00
2022-11-06T07:02:22.329Z,2.00
2022-11-06T07:04:48.739Z,2.60
2022-11-06T07:07:15.142Z,2.33
2022-11-06T07:09:41.569Z,1.80
2022-11-06T07:12:07.944Z,2.23
2022-11-06T07:14:34.343Z,2.50
2022-11-06T07:17:00.716Z,1.90
2022-11-06T07:19:27.161Z,2.03
2022-11-06T07:21:54.132Z,2.00
2022-11-06T07:24:21.009Z,2.47
2022-11-06T07:26:47.335Z,2.00
2022-11-06T07:29:13.719Z,2.00
2022-11-06T07:31:40.145Z,1.97
2022-11-06T07:34:06.516Z,1.70
2022-11-06T07:36:35.449Z,2.13
2022-11-06T07:39:01.803Z,1.83
2022-11-06T07:41:28.276Z,2.30
2022-11-06T07:43:54.657Z,2.07
2022-11-06T07:46:20.973Z,2.50
2022-11-06T07:48:47.405Z,2.30
2022-11-06T07:51:13.815Z,2.00
2022-11-06T07:53:41.181Z,2.20
2022-11-06T07:56:08.653Z,2.33
2022-11-06T07:58:35.199Z,1.87
2022-11-06T08:01:02.485Z,2.77
2022-11-06T08:03:30.245Z,2.00
2022-11-06T08:06:02.765Z,2.37
2022-11-06T08:08:29.142Z,2.07
2022-11-06T08:10:55.553Z,2.23
2022-11-06T08:13:21.965Z,2.33
2022-11-06T08:15:48.373Z,2.13
2022-11-06T08:18:15.235Z,2.20
2022-11-06T08:20:41.894Z,2.50
2022-11-06T08:23:11.107Z,2.70
2022-11-06T08:25:38.008Z,2.17
2022-11-06T08:28:04.380Z,2.00
2022-11-06T08:30:31.710Z,2.00
2022-11-06T08:33:07.508Z,2.00
2022-11-06T08:35:34.531Z,1.90
2022-11-06T08:38:00.855Z,2.10
2022-11-06T08:40:30.926Z,2.67
2022-11-06T08:43:03.195Z,1.90
2022-11-06T08:45:30.379Z,2.10
2022-11-06T08:48:01.580Z,2.00
2022-11-06T08:50:28.152Z,2.20
2022-11-06T08:52:59.068Z,2.50
2022-11-06T08:55:25.393Z,1.83
2022-11-06T08:57:54.541Z,1.93
2022-11-06T09:00:21.104Z,2.40
2022-11-06T09:02:47.413Z,2.67
2022-11-06T09:05:13.771Z,1.93
2022-11-06T09:07:40.152Z,2.73
2022-11-06T09:10:06.756Z,2.90
2022-11-06T09:12:33.076Z,2.60
2022-11-06T09:14:59.487Z,2.37
2022-11-06T09:17:25.871Z,2.67
2022-11-06T09:19:52.789Z,2.80
2022-11-06T09:22:19.860Z,2.60
2022-11-06T09:25:04.304Z,1.90
2022-11-06T09:27:31.439Z,2.50
2022-11-06T09:29:57.922Z,2.63
2022-11-06T09:32:24.615Z,2.37
2022-11-06T09:34:51.108Z,2.13
2022-11-06T09:37:17.464Z,2.43
2022-11-06T09:39:43.943Z,2.20
2022-11-06T09:42:34.519Z,2.03
2022-11-06T09:45:14.673Z,1.87
2022-11-06T09:47:47.308Z,2.23
2022-11-06T09:50:19.732Z,2.03
2022-11-06T09:52:54.551Z,2.00
2022-11-06T09:55:23.558Z,2.30
2022-11-06T09:57:56.225Z,2.23
2022-11-06T10:00:23.092Z,2.07
2022-11-06T10:02:57.059Z,1.83
2022-11-06T10:05:31.338Z,2.30
2022-11-06T10:08:13.625Z,2.23
2022-11-06T10:10:54.535Z,2.40
2022-11-06T10:13:41.871Z,2.73
2022-11-06T10:16:20.092Z,2.63
2022-11-06T10:19:08.330Z,2.63
2022-11-06T10:21:51.671Z,2.60
2022-11-06T10:24:33.508Z,2.00
2022-11-06T10:27:04.609Z,2.57
2022-11-06T10:30:00.336Z,2.80
2022-11-06T10:32:38.830Z,2.40
2022-11-06T10:35:23.913Z,2.57
2022-11-06T10:38:03.926Z,2.60
2022-11-06T10:40:32.478Z,2.80
2022-11-06T10:43:26.950Z,2.47
2022-11-06T10:46:02.967Z,2.20
2022-11-06T10:48:35.739Z,2.27
2022-11-06T10:51:06.478Z,2.40
2022-11-06T10:53:56.068Z,2.80
2022-11-06T10:57:16.632Z,2.50
2022-11-06T10:59:43.044Z,2.53
2022-11-06T11:02:33.486Z,2.33
2022-11-06T11:04:59.908Z,2.33
2022-11-06T11:07:32.296Z,2.50
2022-11-06T11:09:58.850Z,2.43
2022-11-06T11:12:30.719Z,2.40
2022-11-06T11:15:16.207Z,2.37
2022-11-06T11:17:43.222Z,2.80
2022-11-06T11:20:30.126Z,2.50
2022-11-06T11:23:15.260Z,2.67
2022-11-06T11:25:44.932Z,2.80
2022-11-06T11:28:21.726Z,3.07
2022-11-06T11:31:01.844Z,2.87
2022-11-06T11:33:28.287Z,2.67
2022-11-06T11:35:55.186Z,2.47
2022-11-06T11:38:22.756Z,2.70
2022-11-06T11:40:49.645Z,2.40
2022-11-06T11:43:25.258Z,2.80
2022-11-06T11:46:09.964Z,2.33
2022-11-06T11:48:51.269Z,2.13
2022-11-06T11:51:50.364Z,2.70
2022-11-06T11:54:26.815Z,2.73
2022-11-06T11:57:10.277Z,2.87
2022-11-06T11:59:43.730Z,2.53
2022-11-06T12:02:27.688Z,2.03
2022-11-06T12:05:05.724Z,2.20
2022-11-06T12:07:35.591Z,2.10
2022-11-06T12:10:15.836Z,2.20
2022-11-06T12:12:49.827Z,2.40
2022-11-06T12:15:28.313Z,2.07
2022-11-06T12:17:59.623Z,2.30
2022-11-06T12:21:24.739Z,2.20
2022-11-06T12:24:38.652Z,2.03
2022-11-06T12:27:11.653Z,2.13
2022-11-06T12:30:06.364Z,2.30
2022-11-06T12:32:44.906Z,2.57
2022-11-06T12:35:14.420Z,2.33
2022-11-06T12:37:48.736Z,2.20
2022-11-06T12:40:24.788Z,2.00
2022-11-06T12:43:30.464Z,1.47
2022-11-06T12:46:24.534Z,1.73
2022-11-06T12:49:22.087Z,1.97
2022-11-06T12:52:10.464Z,1.87
2022-11-06T12:55:11.415Z,1.80
2022-11-06T12:58:05.429Z,1.60
2022-11-06T13:00:50.579Z,1.53
2022-11-06T13:03:38.841Z,1.50
2022-11-06T13:06:18.375Z,1.97
2022-11-06T13:09:00.327Z,1.50
2022-11-06T13:11:57.620Z,1.30
2022-11-06T13:14:37.881Z,1.97
2022-11-06T13:17:07.252Z,1.77
2022-11-06T13:19:36.320Z,1.57
2022-11-06T13:22:24.326Z,1.33
2022-11-06T13:25:06.700Z,1.40
2022-11-06T13:27:46.315Z,1.60
2022-11-06T13:30:15.318Z,1.30
2022-11-06T13:32:51.056Z,1.40
2022-11-06T13:35:21.825Z,1.57
2022-11-06T13:37:50.308Z,1.40
2022-11-06T13:40:22.782Z,2.93
2022-11-06T13:42:55.282Z,1.73
2022-11-06T13:45:22.818Z,1.30
2022-11-06T13:47:49.197Z,1.33
2022-11-06T13:50:35.059Z,1.43
2022-11-06T13:53:28.550Z,1.20
2022-11-06T13:56:16.198Z,1.33
2022-11-06T13:58:42.504Z,1.03
2022-11-06T14:01:21.644Z,1.23
2022-11-06T14:04:29.441Z,1.30
2022-11-06T14:07:00.806Z,1.20
2022-11-06T14:09:32.148Z,1.50
2022-11-06T14:12:02.132Z,1.50
2022-11-06T14:14:31.358Z,1.50
2022-11-06T14:17:16.086Z,1.93
2022-11-06T14:20:01.022Z,1.60
2022-11-06T14:22:38.258Z,2.60
2022-11-06T14:25:29.405Z,1.40
2022-11-06T14:27:55.673Z,1.20
2022-11-06T14:30:57.577Z,1.70
2022-11-06T14:33:43.149Z,1.37
2022-11-06T14:36:24.722Z,1.37
2022-11-06T14:38:54.841Z,1.70
2022-11-06T14:41:36.389Z,1.60
2022-11-06T14:44:26.853Z,1.70
2022-11-06T14:46:57.774Z,1.77
2022-11-06T14:49:38.222Z,2.07
2022-11-06T14:52:16.099Z,1.77
2022-11-06T14:55:03.485Z,1.60
2022-11-06T14:57:46.240Z,1.50
2022-11-06T15:00:15.715Z,1.60
2022-11-06T15:02:43.444Z,1.50
2022-11-06T15:05:18.216Z,1.73
2022-11-06T15:10:43.190Z,1.70
2022-11-06T15:13:20.014Z,1.83
2022-11-06T15:15:49.736Z,8.07
2022-11-06T15:18:25.774Z,2.70
2022-11-06T15:20:56.878Z,1.77
2022-11-06T15:23:38.882Z,1.80
2022-11-06T15:26:28.449Z,1.63
2022-11-06T15:29:00.837Z,1.50
2022-11-06T15:31:29.721Z,1.93
2022-11-06T15:34:38.020Z,1.60
2022-11-06T15:37:12.538Z,1.70
2022-11-06T15:39:51.261Z,2.33
2022-11-06T15:42:22.236Z,2.00
2022-11-06T15:44:49.855Z,1.93
2022-11-06T15:47:25.187Z,2.23
2022-11-06T15:50:18.247Z,2.30
2022-11-06T15:52:46.800Z,1.90
2022-11-06T15:55:23.315Z,2.43
2022-11-06T15:57:50.778Z,2.63
2022-11-06T16:00:20.798Z,2.10
2022-11-06T16:02:52.087Z,1.90
2022-11-06T16:05:20.057Z,1.70
2022-11-06T16:07:47.551Z,2.00
2022-11-06T16:10:22.995Z,1.80
2022-11-06T16:12:51.339Z,1.80
2022-11-06T16:15:45.859Z,2.10
2022-11-06T16:18:23.946Z,1.77
2022-11-06T16:20:54.607Z,2.13
2022-11-06T16:23:33.456Z,1.80
2022-11-06T16:26:14.562Z,1.90
2022-11-06T16:28:47.448Z,1.83
2022-11-06T16:31:17.603Z,2.43
2022-11-06T16:33:55.274Z,2.43
2022-11-06T16:36:22.459Z,2.67
2022-11-06T16:38:48.910Z,2.20
2022-11-06T16:41:37.826Z,2.20
2022-11-06T16:44:31.691Z,1.90
2022-11-06T16:47:12.015Z,2.47
2022-11-06T16:49:53.565Z,2.30
2022-11-06T16:52:32.717Z,2.70
2022-11-06T16:55:01.815Z,2.60
2022-11-06T16:57:33.935Z,2.40
2022-11-06T17:00:16.939Z,2.23
2022-11-06T17:02:48.491Z,3.20
2022-11-06T17:05:18.567Z,2.47
2022-11-06T17:07:45.913Z,2.30
2022-11-06T17:10:34.112Z,1.90
2022-11-06T17:13:20.680Z,2.20
2022-11-06T17:16:05.180Z,2.10
2022-11-06T17:18:34.155Z,2.40
2022-11-06T17:21:14.385Z,2.00
2022-11-06T17:23:40.959Z,2.13
2022-11-06T17:26:15.870Z,2.50
2022-11-06T17:28:42.202Z,2.00
2022-11-06T17:31:13.733Z,2.23
2022-11-06T17:33:41.241Z,2.37
2022-11-06T17:36:15.235Z,2.10
2022-11-06T17:38:41.704Z,2.37
2022-11-06T17:41:08.012Z,2.40
2022-11-06T17:43:34.307Z,2.10
2022-11-06T17:46:01.870Z,2.63
2022-11-06T17:48:28.313Z,2.50
2022-11-06T17:51:13.720Z,2.43
2022-11-06T17:53:40.081Z,2.63
2022-11-06T17:56:07.252Z,2.53
2022-11-06T17:58:34.255Z,2.47
2022-11-06T18:01:08.863Z,3.00
2022-11-06T18:03:43.772Z,3.70
2022-11-06T18:06:12.144Z,2.73
2022-11-06T18:08:38.514Z,2.80
2022-11-06T18:11:06.235Z,3.70
2022-11-06T18:13:32.650Z,2.57
2022-11-06T18:15:59.271Z,2.87
2022-11-06T18:18:25.830Z,2.90
2022-11-06T18:20:52.145Z,2.77
2022-11-06T18:23:18.867Z,2.63
2022-11-06T18:25:57.129Z,3.57
2022-11-06T18:28:24.824Z,3.10
2022-11-06T18:30:52.247Z,3.20
2022-11-06T18:33:19.569Z,3.03
2022-11-06T18:35:46.683Z,2.73
2022-11-06T18:38:14.690Z,2.57
2022-11-06T18:40:46.073Z,3.00
2022-11-06T18:43:16.619Z,2.80
2022-11-06T18:45:42.988Z,2.63
2022-11-06T18:48:09.351Z,2.60
2022-11-06T18:50:36.692Z,2.87
2022-11-06T18:53:04.316Z,2.67
2022-11-06T18:55:31.681Z,2.60
2022-11-06T18:57:58.031Z,2.87
2022-11-06T19:00:24.890Z,2.43
2022-11-06T19:02:51.766Z,3.20
2022-11-06T19:05:18.331Z,2.87
2022-11-06T19:07:51.227Z,2.70
2022-11-06T19:10:19.448Z,2.67
2022-11-06T19:12:48.730Z,2.30
2022-11-06T19:15:15.019Z,2.70
2022-11-06T19:17:41.330Z,2.80
2022-11-06T19:20:10.819Z,2.50
2022-11-06T19:22:40.125Z,2.43
2022-11-06T19:25:06.947Z,2.50
2022-11-06T19:27:33.335Z,2.70
2022-11-06T19:29:59.641Z,2.30
2022-11-06T19:32:26.071Z,2.47
2022-11-06T19:34:52.395Z,2.87
2022-11-06T19:37:18.740Z,3.40
2022-11-06T19:39:45.158Z,2.77
2022-11-06T19:42:11.476Z,2.60
2022-11-06T19:44:37.783Z,2.70
2022-11-06T19:47:04.316Z,2.40
2022-11-06T19:49:30.735Z,2.60
2022-11-06T19:51:57.165Z,2.37
2022-11-06T19:54:43.500Z,2.63
2022-11-06T19:57:29.705Z,2.60
2022-11-06T19:59:56.355Z,2.53
2022-11-06T20:02:22.741Z,3.10
2022-11-06T20:04:49.312Z,2.63
2022-11-06T20:07:16.218Z,2.57
2022-11-06T20:09:42.787Z,2.73
2022-11-06T20:12:09.188Z,2.50
2022-11-06T20:14:35.487Z,2.67
2022-11-06T20:17:01.871Z,2.53
2022-11-06T20:19:28.268Z,2.17
2022-11-06T20:21:54.650Z,1.90
2022-11-06T20:24:21.076Z,2.17
2022-11-06T20:26:47.535Z,2.30
2022-11-06T20:29:14.333Z,2.30
2022-11-06T20:31:41.479Z,1.90
2022-11-06T20:34:08.110Z,2.20
2022-11-06T20:36:35.589Z,2.13
2022-11-06T20:39:03.691Z,2.40
2022-11-06T20:41:30.475Z,2.40
2022-11-06T20:43:57.380Z,2.20
2022-11-06T20:46:24.585Z,2.67
2022-11-06T20:48:51.651Z,2.30
2022-11-06T20:51:23.134Z,2.60
2022-11-06T20:53:50.374Z,2.27
2022-11-06T20:56:20.649Z,2.10
2022-11-06T20:58:47.975Z,2.00
2022-11-06T21:01:18.169Z,2.30
2022-11-06T21:03:45.801Z,2.17
2022-11-06T21:06:12.687Z,2.20
2022-11-06T21:08:41.039Z,2.97
2022-11-06T21:11:13.522Z,2.30
2022-11-06T21:13:41.107Z,2.50
2022-11-06T21:16:12.332Z,2.40
2022-11-06T21:18:39.677Z,2.20
2022-11-06T21:21:09.059Z,1.80
2022-11-06T21:23:36.473Z,1.90
2022-11-06T21:26:12.114Z,2.00
2022-11-06T21:28:40.064Z,2.63
2022-11-06T21:31:18.717Z,2.33
2022-11-06T21:33:47.026Z,2.33
2022-11-06T21:36:19.401Z,2.17
2022-11-06T21:38:46.221Z,2.17
2022-11-06T21:41:18.488Z,1.97
2022-11-06T21:43:45.380Z,2.07
2022-11-06T21:46:12.701Z,1.80
2022-11-06T21:48:46.449Z,2.30
2022-11-06T21:51:17.511Z,2.10
2022-11-06T21:54:10.145Z,2.03
2022-11-06T21:56:38.021Z,1.83
2022-11-06T21:59:06.889Z,1.73
2022-11-06T22:01:33.885Z,2.03
2022-11-06T22:04:00.698Z,2.07
2022-11-06T22:06:28.148Z,1.90
2022-11-06T22:08:57.115Z,1.80
2022-11-06T22:11:24.788Z,1.63
2022-11-06T22:13:52.857Z,1.80
2022-11-06T22:16:22.819Z,1.87
2022-11-06T22:18:49.513Z,1.90
2022-11-06T22:21:19.004Z,2.10
2022-11-06T22:23:45.561Z,2.03
2022-11-06T22:26:15.066Z,1.90
2022-11-06T22:28:41.908Z,1.93
2022-11-06T22:31:08.720Z,1.60
2022-11-06T22:33:36.177Z,1.73
2022-11-06T22:36:04.366Z,1.80
2022-11-06T22:38:31.444Z,1.70
2022-11-06T22:40:59.362Z,2.00
2022-11-06T22:43:26.866Z,2.00
2022-11-06T22:45:57.875Z,1.60
2022-11-06T22:48:24.420Z,1.60
2022-11-06T22:50:50.919Z,2.07
2022-11-06T22:53:17.854Z,1.80
2022-11-06T22:55:45.364Z,1.90
2022-11-06T22:58:12.081Z,1.83
2022-11-06T23:00:38.523Z,1.80
2022-11-06T23:03:05.423Z,2.03
2022-11-06T23:05:31.965Z,1.73
2022-11-06T23:07:58.386Z,1.70
2022-11-06T23:10:30.941Z,1.77
2022-11-06T23:12:58.160Z,1.70
2022-11-06T23:15:25.348Z,1.90
2022-11-06T23:17:55.096Z,1.80
2022-11-06T23:20:21.880Z,1.80
2022-11-06T23:22:48.395Z,1.60
2022-11-06T23:25:15.223Z,1.77
2022-11-06T23:27:47.017Z,1.20
2022-11-06T23:30:16.000Z,1.53
2022-11-06T23:32:42.896Z,1.33
2022-11-06T23:35:13.729Z,1.53
2022-11-06T23:37:42.231Z,1.53
2022-11-06T23:40:10.927Z,1.60
2022-11-06T23:42:37.576Z,1.40
2022-11-06T23:45:23.797Z,1.47
2022-11-06T23:47:50.728Z,1.67
2022-11-06T23:50:17.640Z,1.73
2022-11-06T23:52:44.631Z,1.57
2022-11-06T23:55:11.672Z,1.40
2022-11-06T23:57:38.204Z,1.43
